Time;durP1;ratioP1;P1;durP2;ratioP2;P2;SDS_P1;SDS_P2;PMS_P1;PMS_P2;Temp;Humidity;BMP_temperature;BMP_pressure;BME280_temperature;BME280_humidity;BME280_pressure;Samples;Min_cycle;Max_cycle;Signal;HPM_P1;HPM_P2
2021/11/10 00:00:27;;;;;;;9.03;5.70;;;;;;;7.75;88.04;96581.59;5119412;28;20455;-83
2021/11/10 00:02:54;;;;;;;14.73;7.17;;;;;;;7.65;88.27;96577.72;5118760;28;20526;-83
2021/11/10 00:05:22;;;;;;;15.27;6.23;;;;;;;7.64;88.28;96590.88;5118262;28;20458;-83
2021/11/10 00:07:50;;;;;;;20.53;8.07;;;;;;;7.62;88.62;96587.47;5118293;28;20555;-83
2021/11/10 00:10:17;;;;;;;15.63;6.50;;;;;;;7.61;88.74;96577.94;5118084;28;20471;-83
2021/11/10 00:12:45;;;;;;;13.23;6.23;;;;;;;7.60;89.04;96584.09;5066449;28;20535;-84
2021/11/10 00:28:40;;;;;;;4.97;4.40;;;;;;;7.55;89.36;96601.75;5118502;28;20454;-84
2021/11/10 00:31:07;;;;;;;5.40;3.80;;;;;;;7.58;88.74;96589.38;5118106;28;20989;-84
2021/11/10 00:33:35;;;;;;;4.57;3.73;;;;;;;7.57;88.33;96595.53;5117447;28;20516;-84
2021/11/10 00:36:02;;;;;;;4.97;3.80;;;;;;;7.45;88.02;96604.75;5118144;28;20894;-84
2021/11/10 00:38:29;;;;;;;3.40;3.10;;;;;;;7.37;87.93;96593.81;5117888;28;20867;-84
2021/11/10 00:40:56;;;;;;;5.03;3.13;;;;;;;7.33;88.57;96596.63;5118108;28;20803;-84
2021/11/10 00:43:23;;;;;;;3.80;3.40;;;;;;;7.28;88.71;96596.00;5117756;28;20450;-84
2021/11/10 00:45:52;;;;;;;9.03;3.60;;;;;;;7.26;89.05;96596.06;5117449;28;20440;-84
2021/11/10 00:48:19;;;;;;;4.67;4.00;;;;;;;7.28;89.08;96589.00;5082005;28;20562;-84
2021/11/10 00:50:46;;;;;;;5.10;4.60;;;;;;;7.27;89.02;96591.69;5117240;28;20420;-85
2021/11/10 00:53:14;;;;;;;4.20;3.10;;;;;;;7.30;88.77;96597.63;5117604;28;20428;-84
2021/11/10 00:55:47;;;;;;;5.27;4.03;;;;;;;7.33;88.27;96591.41;5118611;28;20437;-84
2021/11/10 00:58:14;;;;;;;4.80;3.90;;;;;;;7.32;88.29;96592.31;5117344;28;20416;-84
2021/11/10 01:00:41;;;;;;;5.40;3.77;;;;;;;7.29;88.87;96590.72;5117541;28;21035;-84
2021/11/10 01:03:10;;;;;;;3.73;3.30;;;;;;;7.24;88.40;96602.28;5117628;28;20447;-84
2021/11/10 01:05:39;;;;;;;4.10;3.70;;;;;;;7.03;89.42;96598.84;5117365;28;20435;-84
2021/11/10 01:08:07;;;;;;;4.90;4.33;;;;;;;6.96;89.19;96598.25;5117603;28;20510;-84
2021/11/10 01:10:35;;;;;;;5.93;4.30;;;;;;;7.00;89.64;96594.59;5117289;28;20440;-84
2021/11/10 01:13:02;;;;;;;4.90;4.50;;;;;;;7.10;89.23;96601.09;5117166;28;20529;-84
2021/11/10 01:15:30;;;;;;;5.50;4.83;;;;;;;7.17;88.81;96609.50;5116365;28;20441;-84
2021/11/10 01:17:57;;;;;;;5.87;4.53;;;;;;;7.15;88.38;96599.13;5116667;28;20525;-84
2021/11/10 01:20:25;;;;;;;4.47;4.03;;;;;;;7.18;88.24;96611.19;5117356;28;20757;-82
2021/11/10 01:26:20;;;;;;;5.43;4.60;;;;;;;7.14;88.59;96613.09;5117806;28;20395;-83
2021/11/10 01:28:47;;;;;;;4.63;4.00;;;;;;;7.12;88.33;96608.88;5116574;28;20542;-84
2021/11/10 01:31:14;;;;;;;5.73;4.60;;;;;;;7.15;88.42;96619.16;5116856;28;20424;-83
2021/11/10 01:33:41;;;;;;;5.37;4.40;;;;;;;7.16;89.19;96613.03;5116755;28;20468;-84
2021/11/10 01:36:10;;;;;;;5.13;3.87;;;;;;;7.23;89.61;96603.16;5116152;28;20474;-83
2021/11/10 01:38:37;;;;;;;4.90;3.53;;;;;;;7.22;89.29;96610.16;5116282;28;20442;-83
2021/11/10 01:41:04;;;;;;;3.37;3.07;;;;;;;7.24;89.32;96623.16;5116369;28;20488;-83
2021/11/10 01:43:32;;;;;;;2.70;2.50;;;;;;;7.26;89.73;96605.66;5116107;28;20798;-83
2021/11/10 01:49:21;;;;;;;2.87;2.40;;;;;;;7.17;89.62;96609.50;5121277;28;20476;-84
2021/11/10 01:51:52;;;;;;;4.00;2.90;;;;;;;7.30;88.89;96602.84;5117990;28;20437;-83
2021/11/10 01:54:21;;;;;;;4.00;2.70;;;;;;;7.38;88.86;96607.72;5119814;28;20826;-83
2021/11/10 01:56:49;;;;;;;3.73;2.70;;;;;;;7.44;88.90;96603.06;5119640;28;20463;-84
2021/11/10 01:59:30;;;;;;;4.90;3.20;;;;;;;7.49;88.36;96597.63;5118713;28;20807;-83
2021/11/10 02:02:00;;;;;;;4.47;3.10;;;;;;;7.49;88.28;96602.00;5119677;28;20439;-84
2021/11/10 02:04:27;;;;;;;3.10;2.70;;;;;;;7.54;87.70;96597.44;5123794;28;20988;-82
2021/11/10 02:06:56;;;;;;;3.00;2.70;;;;;;;7.63;87.74;96608.31;5125022;28;20474;-84
2021/11/10 02:09:24;;;;;;;4.03;2.60;;;;;;;7.63;87.92;96610.06;5120518;28;20487;-84
2021/11/10 02:11:53;;;;;;;4.67;3.30;;;;;;;7.65;87.27;96610.84;5117501;28;20930;-84
2021/11/10 02:14:20;;;;;;;3.33;3.03;;;;;;;7.58;87.73;96612.91;5115386;28;20514;-84
2021/11/10 02:23:32;;;;;;;4.50;3.73;;;;;;;7.49;89.50;96607.22;5114544;28;20408;-84
2021/11/10 02:26:01;;;;;;;3.67;3.27;;;;;;;7.46;90.03;96609.06;5114738;28;20426;-84
2021/11/10 02:28:28;;;;;;;3.83;3.43;;;;;;;7.49;91.41;96602.84;5115426;28;20471;-84
2021/11/10 02:30:55;;;;;;;3.20;2.93;;;;;;;7.49;91.17;96612.44;5119118;28;20437;-83
2021/11/10 02:33:28;;;;;;;4.70;3.93;;;;;;;7.41;91.46;96605.81;5119933;28;20921;-83
2021/11/10 02:39:26;;;;;;;4.20;3.67;;;;;;;7.51;91.66;96621.91;5109517;28;20875;-84
2021/11/10 02:41:53;;;;;;;4.40;4.00;;;;;;;7.36;92.49;96618.22;5068283;28;20479;-82
2021/11/10 02:44:22;;;;;;;4.23;3.83;;;;;;;7.46;92.22;96613.44;5116143;28;20530;-84
2021/11/10 02:46:51;;;;;;;5.00;4.50;;;;;;;7.34;91.27;96617.44;5116749;28;20432;-82
2021/11/10 02:49:20;;;;;;;4.77;4.20;;;;;;;7.20;91.88;96609.38;5115921;28;20473;-83
2021/11/10 02:51:55;;;;;;;7.97;5.20;;;;;;;7.06;93.20;96616.97;5116346;28;20797;-83
2021/11/10 02:54:22;;;;;;;5.50;4.90;;;;;;;6.99;93.34;96621.59;5065050;28;20951;-84
2021/11/10 02:56:51;;;;;;;8.50;5.00;;;;;;;7.10;93.05;96616.75;5115592;28;20425;-84
2021/11/10 02:59:18;;;;;;;4.73;4.33;;;;;;;7.18;92.77;96628.63;5115706;28;20434;-83
2021/11/10 03:01:45;;;;;;;6.30;4.40;;;;;;;7.28;92.33;96627.34;5064058;28;20821;-84
2021/11/10 03:04:19;;;;;;;5.57;4.30;;;;;;;7.05;92.29;96620.50;5114672;28;20438;-85
2021/11/10 03:06:47;;;;;;;6.03;5.53;;;;;;;7.22;91.83;96620.59;5115720;28;20442;-82
2021/11/10 03:09:17;;;;;;;4.87;4.47;;;;;;;7.19;91.27;96618.13;5115542;28;20480;-83
2021/11/10 03:11:45;;;;;;;7.03;4.40;;;;;;;7.02;91.83;96621.47;5115935;28;20423;-83
2021/11/10 03:14:14;;;;;;;5.33;4.10;;;;;;;7.03;90.59;96625.78;5120398;28;20419;-83
2021/11/10 03:16:41;;;;;;;5.60;4.40;;;;;;;6.87;90.30;96629.09;5119467;28;20981;-83
2021/11/10 03:19:17;;;;;;;3.47;3.17;;;;;;;6.45;91.98;96628.22;5068855;28;20944;-83
2021/11/10 03:21:44;;;;;;;3.00;1.90;;;;;;;6.19;91.73;96620.59;5120266;28;20805;-82
2021/11/10 03:24:11;;;;;;;3.70;3.40;;;;;;;6.16;92.58;96624.16;5067149;28;20821;-84
2021/11/10 03:26:39;;;;;;;3.80;3.50;;;;;;;6.12;92.24;96621.75;5118898;28;20439;-84
2021/11/10 03:29:06;;;;;;;4.87;4.27;;;;;;;6.06;93.09;96621.97;5120581;28;20502;-84
2021/11/10 03:31:36;;;;;;;6.70;4.60;;;;;;;5.92;93.72;96622.53;5121011;28;20467;-83
2021/11/10 03:34:05;;;;;;;4.30;4.00;;;;;;;5.90;92.73;96626.94;5120926;28;20444;-84
2021/11/10 03:36:32;;;;;;;5.73;4.27;;;;;;;6.01;92.57;96629.97;5121183;28;20430;-84
2021/11/10 03:39:00;;;;;;;4.07;3.77;;;;;;;5.91;92.77;96623.44;5120128;28;20471;-83
2021/11/10 03:41:27;;;;;;;3.73;2.70;;;;;;;5.88;92.89;96634.78;5119706;28;20440;-82
2021/11/10 03:43:55;;;;;;;4.07;3.47;;;;;;;5.84;93.11;96630.59;5118585;28;20429;-83
2021/11/10 03:46:23;;;;;;;4.40;4.00;;;;;;;5.91;93.21;96639.06;5119750;28;20511;-83
2021/11/10 03:48:53;;;;;;;3.50;3.20;;;;;;;5.90;92.95;96635.59;5066340;28;21049;-84
2021/11/10 03:51:39;;;;;;;4.00;3.20;;;;;;;5.82;93.29;96636.78;5119299;28;20496;-84
2021/11/10 03:54:06;;;;;;;4.50;3.90;;;;;;;5.82;92.95;96639.38;5118273;28;20430;-84
2021/11/10 03:56:33;;;;;;;4.70;3.33;;;;;;;5.77;93.41;96636.94;5118570;28;20439;-84
2021/11/10 03:59:00;;;;;;;6.23;4.43;;;;;;;5.74;93.57;96644.88;5118144;28;20451;-84
2021/11/10 04:01:27;;;;;;;7.90;5.40;;;;;;;5.69;92.97;96635.53;5082434;28;20819;-84
2021/11/10 04:03:55;;;;;;;7.20;5.17;;;;;;;5.70;93.89;96638.06;5118379;28;20436;-84
2021/11/10 04:06:23;;;;;;;8.43;5.10;;;;;;;5.71;93.23;96636.31;5118094;28;20423;-84
2021/11/10 04:08:51;;;;;;;4.73;4.20;;;;;;;5.74;93.32;96646.63;5117874;28;20986;-84
2021/11/10 04:11:19;;;;;;;6.20;4.70;;;;;;;5.78;92.53;96643.00;5117640;28;20453;-84
2021/11/10 04:13:46;;;;;;;8.20;4.27;;;;;;;5.96;92.57;96646.69;5118311;28;20438;-84
2021/11/10 04:16:13;;;;;;;7.73;5.30;;;;;;;5.83;91.47;96643.69;5117530;28;20454;-84
2021/11/10 04:18:40;;;;;;;5.10;4.60;;;;;;;5.92;91.72;96650.34;5117362;28;20443;-84
2021/11/10 04:21:09;;;;;;;6.07;4.80;;;;;;;5.88;91.20;96645.22;5118368;28;20443;-84
2021/11/10 04:23:36;;;;;;;8.23;6.17;;;;;;;5.98;90.75;96643.13;5117429;28;20431;-84
2021/11/10 04:29:25;;;;;;;6.83;5.13;;;;;;;6.22;89.03;96646.53;5117568;28;20451;-84
2021/11/10 04:31:53;;;;;;;9.17;5.70;;;;;;;6.07;89.18;96641.91;5117570;28;20901;-84
2021/11/10 04:34:20;;;;;;;7.07;4.20;;;;;;;6.01;88.38;96648.22;5118051;28;20437;-84
2021/11/10 04:36:49;;;;;;;7.10;6.40;;;;;;;6.03;89.02;96653.38;5117035;28;20457;-84
2021/11/10 04:39:16;;;;;;;6.17;5.53;;;;;;;5.95;89.13;96645.84;5116930;28;20569;-83
2021/11/10 04:41:43;;;;;;;12.10;6.37;;;;;;;5.99;88.17;96655.25;5117814;28;20432;-84
2021/11/10 04:44:10;;;;;;;6.10;5.13;;;;;;;5.97;88.90;96657.06;5106337;28;20499;-84
2021/11/10 04:46:37;;;;;;;6.27;5.50;;;;;;;6.01;88.42;96650.81;5117259;28;20443;-84
2021/11/10 04:49:05;;;;;;;8.60;5.83;;;;;;;5.99;88.44;96649.19;5117187;28;20482;-84
2021/11/10 04:51:33;;;;;;;8.60;6.73;;;;;;;5.90;87.67;96640.81;5117312;28;20479;-83
2021/11/10 04:54:07;;;;;;;13.50;7.27;;;;;;;5.88;88.19;96653.03;5116496;28;20423;-83
2021/11/10 04:56:36;;;;;;;7.37;6.20;;;;;;;5.89;88.11;96665.19;5116674;28;20432;-83
2021/11/10 04:59:03;;;;;;;7.70;6.20;;;;;;;5.98;88.15;96658.75;5116973;28;20476;-84
2021/11/10 05:01:32;;;;;;;8.20;6.20;;;;;;;6.09;87.26;96655.75;5116548;28;20431;-84
2021/11/10 05:03:59;;;;;;;9.27;5.83;;;;;;;6.23;86.79;96674.28;5117716;28;20431;-83
2021/11/10 05:06:30;;;;;;;8.77;6.47;;;;;;;6.37;86.16;96665.94;5116651;28;20780;-83
2021/11/10 05:08:57;;;;;;;12.40;6.60;;;;;;;6.27;86.38;96662.84;5116308;28;20828;-83
2021/11/10 05:11:26;;;;;;;9.73;6.60;;;;;;;6.38;86.55;96672.84;5116605;28;20444;-83
2021/11/10 05:13:54;;;;;;;8.57;6.33;;;;;;;6.30;85.96;96667.06;5114852;28;20444;-84
2021/11/10 05:16:21;;;;;;;13.50;7.10;;;;;;;6.39;85.77;96658.91;5116372;28;20976;-83
2021/11/10 05:18:48;;;;;;;9.90;6.60;;;;;;;6.50;84.93;96661.94;5081747;28;21400;-88
2021/11/10 05:21:15;;;;;;;11.20;6.77;;;;;;;6.54;84.68;96668.72;5120084;28;20541;-87
2021/11/10 05:23:42;;;;;;;9.30;6.80;;;;;;;6.47;85.21;96662.91;5119956;28;20447;-86
2021/11/10 05:26:09;;;;;;;11.57;8.10;;;;;;;6.18;86.05;96681.44;5118588;28;20471;-86
2021/11/10 05:28:38;;;;;;;13.30;8.40;;;;;;;6.20;86.84;96672.66;5118111;28;20989;-87
2021/11/10 05:31:05;;;;;;;11.87;6.87;;;;;;;6.09;86.64;96677.44;5118211;28;20761;-86
2021/11/10 05:33:32;;;;;;;15.47;8.67;;;;;;;6.14;86.63;96672.06;5117872;28;20439;-86
2021/11/10 05:35:59;;;;;;;10.77;8.27;;;;;;;6.38;86.47;96678.06;5066859;28;20526;-87
2021/11/10 05:38:26;;;;;;;9.03;7.10;;;;;;;6.91;84.06;96675.88;5117607;28;20521;-82
2021/11/10 05:40:53;;;;;;;10.73;6.53;;;;;;;7.73;80.33;96684.50;5118923;28;20449;-82
2021/11/10 05:43:20;;;;;;;15.37;5.60;;;;;;;8.59;76.10;96691.84;5115448;28;20434;-82
2021/11/10 05:45:48;;;;;;;8.53;5.97;;;;;;;9.26;74.43;96686.78;5105630;28;20439;-82
2021/11/10 05:48:16;;;;;;;12.97;5.93;;;;;;;10.08;71.60;96694.66;5094758;28;20460;-82
2021/11/10 05:50:43;;;;;;;10.80;6.63;;;;;;;10.55;68.79;96699.13;5095197;28;20846;-82
2021/11/10 05:53:10;;;;;;;15.30;6.50;;;;;;;10.77;67.23;96693.53;5094075;28;20445;-82
2021/11/10 05:55:38;;;;;;;6.60;5.53;;;;;;;10.94;66.51;96701.28;5095228;28;20515;-82
2021/11/10 05:58:06;;;;;;;26.27;7.70;;;;;;;11.06;66.58;96694.50;5094296;28;20479;-82
2021/11/10 06:00:33;;;;;;;16.10;6.30;;;;;;;11.11;66.22;96690.66;5093518;28;20998;-82
2021/11/10 06:03:01;;;;;;;15.50;7.50;;;;;;;11.20;66.67;96696.31;5094077;28;20454;-82
2021/11/10 06:05:28;;;;;;;11.00;6.87;;;;;;;11.20;66.81;96685.78;5093855;28;20931;-82
2021/11/10 06:07:57;;;;;;;22.67;9.03;;;;;;;11.01;65.09;96689.50;5093639;28;20456;-82
2021/11/10 06:10:24;;;;;;;15.50;8.57;;;;;;;10.76;66.30;96699.72;5094756;28;20514;-83
2021/11/10 06:12:51;;;;;;;13.00;8.20;;;;;;;10.67;67.25;96708.94;5094453;28;20433;-82
2021/11/10 06:15:18;;;;;;;17.33;7.50;;;;;;;10.57;68.00;96705.16;5095040;28;20543;-83
2021/11/10 06:24:30;;;;;;;20.33;9.00;;;;;;;9.20;71.21;96718.50;5093934;28;20431;-85
2021/11/10 06:26:57;;;;;;;19.50;9.43;;;;;;;9.10;71.72;96716.41;5096425;28;20440;-83
2021/11/10 06:29:24;;;;;;;13.57;9.00;;;;;;;8.99;71.70;96711.72;5094625;28;20821;-86
2021/11/10 06:31:52;;;;;;;16.73;9.37;;;;;;;8.91;71.58;96716.47;5094671;28;20991;-88
2021/11/10 06:37:40;;;;;;;8.03;5.63;;;;;;;8.30;74.61;96717.59;5110280;28;20423;-84
2021/11/10 06:40:11;;;;;;;6.60;4.90;;;;;;;8.32;72.64;96722.75;5113361;28;20572;-83
2021/11/10 06:42:38;;;;;;;7.50;4.80;;;;;;;8.15;75.43;96717.47;5062014;28;20512;-83
2021/11/10 06:45:06;;;;;;;9.87;6.27;;;;;;;8.11;75.90;96713.31;5114318;28;21068;-83
2021/11/10 06:47:34;;;;;;;11.57;7.20;;;;;;;8.19;76.48;96721.63;5113757;28;20520;-83
2021/11/10 06:50:03;;;;;;;11.47;7.10;;;;;;;8.00;76.79;96724.22;5113575;28;20574;-83
2021/11/10 06:52:30;;;;;;;11.90;6.80;;;;;;;7.69;79.41;96724.75;5113397;28;20441;-84
2021/11/10 06:54:57;;;;;;;10.30;5.57;;;;;;;7.71;79.30;96722.91;5113753;28;20521;-83
2021/11/10 06:57:26;;;;;;;11.00;7.27;;;;;;;7.54;79.95;96725.44;5113183;28;20443;-84
2021/11/10 06:59:53;;;;;;;13.47;8.33;;;;;;;7.67;80.63;96721.34;5112864;28;20966;-83
2021/11/10 07:02:20;;;;;;;7.83;5.30;;;;;;;7.73;79.64;96726.31;5113003;28;21119;-84
2021/11/10 07:04:47;;;;;;;6.33;5.20;;;;;;;7.61;80.00;96722.47;5113401;28;20498;-83
2021/11/10 07:07:14;;;;;;;10.03;5.87;;;;;;;7.73;80.11;96721.94;5113330;28;20478;-84
2021/11/10 07:09:42;;;;;;;5.43;4.93;;;;;;;7.88;79.77;96730.03;5113533;28;20485;-84
2021/11/10 07:12:10;;;;;;;6.07;4.90;;;;;;;7.82;78.83;96719.84;5113180;28;20501;-84
2021/11/10 07:14:38;;;;;;;8.03;5.00;;;;;;;7.81;79.09;96732.06;5113051;28;20464;-84
2021/11/10 07:17:06;;;;;;;10.27;5.80;;;;;;;7.95;79.01;96727.06;5113910;28;20805;-83
2021/11/10 07:19:34;;;;;;;6.33;4.43;;;;;;;8.08;78.23;96722.94;5114269;28;20539;-85
2021/11/10 07:22:01;;;;;;;8.37;6.33;;;;;;;8.06;78.36;96716.94;5114305;28;20471;-82
2021/11/10 07:24:29;;;;;;;8.70;7.47;;;;;;;8.04;79.15;96713.56;5114376;28;20447;-84
2021/11/10 07:26:56;;;;;;;7.90;5.83;;;;;;;8.14;79.38;96718.38;5113986;28;20450;-84
2021/11/10 07:29:24;;;;;;;5.03;4.23;;;;;;;8.15;78.54;96720.94;5113690;28;20467;-84
2021/11/10 07:31:52;;;;;;;8.50;5.43;;;;;;;8.20;78.81;96710.25;5114063;28;20471;-85
2021/11/10 07:37:42;;;;;;;8.70;5.50;;;;;;;8.55;77.27;96719.09;5113429;28;20421;-84
2021/11/10 07:40:10;;;;;;;7.13;5.73;;;;;;;8.56;78.29;96726.03;5113843;28;20916;-83
2021/11/10 07:42:37;;;;;;;6.00;5.40;;;;;;;8.45;77.83;96716.06;5114457;28;20492;-83
2021/11/10 07:45:09;;;;;;;6.23;5.40;;;;;;;8.47;77.23;96719.47;5113347;28;20477;-83
2021/11/10 07:47:41;;;;;;;5.70;5.10;;;;;;;8.64;76.80;96724.72;5078501;28;20468;-83
2021/11/10 07:50:11;;;;;;;7.13;5.70;;;;;;;8.73;75.14;96725.22;5112058;28;20917;-84
2021/11/10 07:52:38;;;;;;;4.33;3.63;;;;;;;8.42;76.22;96721.44;5112744;28;20490;-83
2021/11/10 07:55:06;;;;;;;10.17;8.10;;;;;;;8.46;76.88;96725.63;5112655;28;20436;-83
2021/11/10 07:57:35;;;;;;;8.27;5.90;;;;;;;8.51;76.87;96720.16;5043839;28;20454;-83
2021/11/10 08:00:04;;;;;;;6.00;5.10;;;;;;;8.54;77.34;96718.25;5114607;28;20425;-82
2021/11/10 08:02:34;;;;;;;5.07;4.57;;;;;;;8.81;77.80;96717.84;5116291;28;20427;-83
2021/11/10 08:05:08;;;;;;;5.73;5.17;;;;;;;8.81;75.65;96716.06;5116273;28;20436;-83
2021/11/10 08:07:35;;;;;;;6.00;5.27;;;;;;;8.90;76.34;96720.84;5116940;28;20487;-84
2021/11/10 08:10:02;;;;;;;7.60;3.90;;;;;;;8.91;72.38;96722.53;5117600;28;20834;-84
2021/11/10 08:12:31;;;;;;;6.07;4.40;;;;;;;9.05;73.28;96714.03;5117171;28;20910;-84
2021/11/10 08:14:58;;;;;;;6.23;5.20;;;;;;;9.16;72.36;96716.94;5117826;28;20432;-84
2021/11/10 08:17:26;;;;;;;5.53;4.93;;;;;;;8.97;73.25;96719.66;5116806;28;20466;-84
2021/11/10 08:19:53;;;;;;;7.20;5.20;;;;;;;8.90;72.85;96712.16;5117175;28;20482;-84
2021/11/10 08:22:21;;;;;;;8.23;4.33;;;;;;;8.98;71.77;96710.88;5117426;28;20451;-84
2021/11/10 08:24:50;;;;;;;9.60;5.23;;;;;;;9.04;71.92;96693.16;5116876;28;20424;-84
2021/11/10 08:27:17;;;;;;;6.10;4.93;;;;;;;9.32;72.47;96696.09;5116734;28;20469;-84
2021/11/10 08:29:45;;;;;;;5.63;4.03;;;;;;;9.58;70.37;96700.00;5116860;28;20484;-84
2021/11/10 08:32:12;;;;;;;5.40;4.50;;;;;;;9.80;69.71;96695.28;5113619;28;20509;-85
2021/11/10 08:34:39;;;;;;;7.87;4.90;;;;;;;9.79;68.26;96690.97;5095880;28;20479;-84
2021/11/10 08:37:06;;;;;;;4.97;4.13;;;;;;;9.92;68.27;96694.66;5097043;28;21005;-85
2021/11/10 08:39:35;;;;;;;4.30;3.97;;;;;;;10.09;67.96;96695.53;5115685;28;20495;-85
2021/11/10 08:42:04;;;;;;;6.87;4.70;;;;;;;9.92;66.93;96686.78;5105560;28;20485;-84
2021/11/10 08:44:32;;;;;;;7.37;5.53;;;;;;;10.03;68.93;96696.69;5097025;28;20443;-85
2021/11/10 08:46:59;;;;;;;3.87;3.57;;;;;;;10.06;67.66;96693.06;5097153;28;20451;-84
2021/11/10 08:49:26;;;;;;;3.63;3.23;;;;;;;9.71;66.44;96701.03;5075933;28;20454;-84
2021/11/10 08:51:53;;;;;;;7.13;4.90;;;;;;;9.67;68.85;96689.03;5116391;28;20541;-84
2021/11/10 08:54:25;;;;;;;5.10;4.07;;;;;;;9.58;68.91;96685.13;5111750;28;20454;-84
2021/11/10 08:56:54;;;;;;;6.00;4.80;;;;;;;9.80;68.02;96679.56;5115033;28;20448;-84
2021/11/10 08:59:21;;;;;;;4.27;3.87;;;;;;;9.68;68.53;96690.72;5099851;28;20444;-83
2021/11/10 09:01:50;;;;;;;5.93;3.70;;;;;;;9.78;68.80;96675.34;5097725;28;20443;-84
2021/11/10 09:04:18;;;;;;;16.90;12.77;;;;;;;10.08;68.35;96678.94;5102753;28;20967;-84
2021/11/10 09:06:45;;;;;;;4.07;3.70;;;;;;;10.26;67.34;96684.16;5118297;28;20448;-85
2021/11/10 09:09:12;;;;;;;5.33;4.83;;;;;;;10.38;66.58;96673.81;5118030;28;20439;-84
2021/11/10 09:11:40;;;;;;;4.33;3.93;;;;;;;10.16;66.39;96666.28;5113786;28;20608;-84
2021/11/10 09:14:08;;;;;;;6.10;4.20;;;;;;;10.23;65.46;96678.16;5117361;28;20448;-84
2021/11/10 09:16:35;;;;;;;3.80;3.50;;;;;;;10.23;67.20;96672.91;5111112;28;20531;-85
2021/11/10 09:19:03;;;;;;;3.37;3.07;;;;;;;10.38;66.58;96663.31;5105137;28;20436;-84
2021/11/10 09:21:31;;;;;;;4.50;4.10;;;;;;;10.21;65.60;96658.19;5105849;28;20452;-84
2021/11/10 09:23:58;;;;;;;4.80;3.83;;;;;;;10.10;66.19;96655.25;5102995;28;20496;-85
2021/11/10 09:26:25;;;;;;;10.60;3.73;;;;;;;10.04;66.63;96666.06;5118801;28;20451;-85
2021/11/10 09:28:54;;;;;;;4.93;3.60;;;;;;;10.15;66.70;96650.63;5106692;28;20497;-84
2021/11/10 09:31:24;;;;;;;4.03;3.63;;;;;;;10.45;65.09;96648.09;5098969;28;20842;-84
2021/11/10 09:33:58;;;;;;;4.03;3.63;;;;;;;10.38;64.58;96651.97;5100578;28;20979;-84
2021/11/10 09:36:25;;;;;;;3.70;3.13;;;;;;;10.35;65.59;96654.78;5118548;28;20447;-84
2021/11/10 09:38:52;;;;;;;5.87;3.80;;;;;;;10.46;65.90;96648.00;5118418;28;20520;-85
2021/11/10 09:41:19;;;;;;;4.43;3.40;;;;;;;10.45;65.54;96640.22;5117642;28;20988;-84
2021/11/10 09:43:46;;;;;;;5.87;3.80;;;;;;;10.66;65.78;96643.41;5118393;28;20940;-84
2021/11/10 09:46:16;;;;;;;4.83;3.70;;;;;;;10.79;64.87;96634.75;5118017;28;20469;-83
2021/11/10 09:48:58;;;;;;;4.13;3.70;;;;;;;10.86;64.29;96636.06;5119028;28;20442;-85
2021/11/10 09:51:46;;;;;;;5.57;3.80;;;;;;;11.00;63.64;96629.19;5111348;28;20538;-82
2021/11/10 09:57:35;;;;;;;11.03;3.30;;;;;;;11.00;62.35;96630.03;5097684;28;20492;-83
2021/11/10 10:00:04;;;;;;;2.53;2.33;;;;;;;10.49;63.79;96620.75;5096482;28;20817;-83
2021/11/10 10:02:32;;;;;;;5.90;4.07;;;;;;;10.74;64.38;96610.53;5097084;28;20439;-84
2021/11/10 10:05:01;;;;;;;6.00;5.40;;;;;;;10.83;63.38;96624.91;5043667;28;20479;-85
2021/11/10 10:07:28;;;;;;;6.57;4.20;;;;;;;10.59;63.46;96621.06;5097121;28;20504;-84
2021/11/10 10:09:55;;;;;;;6.90;4.50;;;;;;;10.54;64.24;96606.41;5096651;28;20518;-84
2021/11/10 10:12:22;;;;;;;5.40;3.53;;;;;;;10.19;64.99;96608.38;5096560;28;20882;-83
2021/11/10 10:14:52;;;;;;;4.50;4.10;;;;;;;10.27;64.81;96602.72;5096886;28;20456;-84
2021/11/10 10:17:36;;;;;;;6.23;4.70;;;;;;;10.21;64.71;96601.31;5096350;28;20814;-85
2021/11/10 10:20:08;;;;;;;3.10;2.90;;;;;;;10.16;64.96;96594.59;5095978;28;20559;-84
2021/11/10 10:22:34;;;;;;;3.20;3.00;;;;;;;10.21;64.50;96597.84;5045081;28;20539;-84
2021/11/10 10:25:02;;;;;;;4.87;4.10;;;;;;;10.34;64.09;96590.94;5096212;28;20453;-85
2021/11/10 10:27:32;;;;;;;4.60;4.00;;;;;;;10.40;64.55;96585.34;5097769;28;20531;-84
2021/11/10 10:30:29;;;;;;;8.07;4.40;;;;;;;10.27;64.81;96591.41;5098482;28;20535;-85
2021/11/10 10:32:58;;;;;;;4.80;3.73;;;;;;;10.34;63.70;96582.25;5060672;28;20528;-83
2021/11/10 10:35:45;;;;;;;4.40;3.93;;;;;;;10.34;64.24;96569.97;5098160;28;20444;-85
2021/11/10 10:38:14;;;;;;;3.90;3.60;;;;;;;10.40;63.71;96569.59;5097219;28;20901;-83
2021/11/10 10:40:43;;;;;;;3.57;3.23;;;;;;;10.50;64.53;96580.44;5116548;28;20516;-84
2021/11/10 10:43:11;;;;;;;4.83;4.10;;;;;;;10.53;65.15;96565.34;5116745;28;20439;-85
2021/11/10 10:45:41;;;;;;;4.40;4.00;;;;;;;10.63;64.36;96554.31;5117011;28;20474;-84
2021/11/10 10:48:12;;;;;;;3.67;3.37;;;;;;;10.67;63.29;96574.19;5117111;28;20511;-83
2021/11/10 10:50:43;;;;;;;5.60;5.07;;;;;;;10.84;63.34;96558.31;5106011;28;20484;-84
2021/11/10 10:53:13;;;;;;;5.53;5.03;;;;;;;10.98;62.72;96560.09;5109515;28;21008;-85
2021/11/10 10:55:42;;;;;;;5.07;3.20;;;;;;;10.81;62.13;96561.13;5117160;28;20467;-83
2021/11/10 10:58:11;;;;;;;7.93;4.27;;;;;;;10.89;62.07;96564.13;5113321;28;20447;-83
2021/11/10 11:00:39;;;;;;;4.70;4.30;;;;;;;10.91;63.49;96557.00;5114430;28;20450;-85
2021/11/10 11:03:27;;;;;;;4.37;3.53;;;;;;;10.99;62.80;96560.03;5045293;28;20452;-84
2021/11/10 11:05:57;;;;;;;4.83;4.20;;;;;;;11.00;62.75;96548.59;5104712;28;20445;-84
2021/11/10 11:08:35;;;;;;;4.83;4.03;;;;;;;11.21;62.18;96556.09;5096899;28;20432;-85
2021/11/10 11:11:17;;;;;;;4.23;3.67;;;;;;;11.04;61.81;96555.34;5097519;28;20526;-83
2021/11/10 11:13:47;;;;;;;4.70;3.77;;;;;;;10.92;61.68;96542.09;5096243;28;20497;-83
2021/11/10 11:16:30;;;;;;;5.90;5.00;;;;;;;10.98;64.02;96539.94;5096223;28;20454;-86
2021/11/10 11:19:16;;;;;;;4.40;3.77;;;;;;;11.15;61.54;96536.31;5096550;28;20527;-85
2021/11/10 11:21:55;;;;;;;6.60;4.50;;;;;;;10.92;62.97;96532.44;5108363;28;20469;-85
2021/11/10 11:24:36;;;;;;;4.70;3.50;;;;;;;11.09;61.96;96532.28;5100813;28;20519;-85
2021/11/10 11:27:19;;;;;;;4.37;3.87;;;;;;;11.14;62.32;96526.75;5094840;28;20432;-84
2021/11/10 11:29:52;;;;;;;3.83;3.43;;;;;;;11.08;61.26;96530.59;5095289;28;20483;-84
2021/11/10 11:32:25;;;;;;;4.30;3.83;;;;;;;10.92;62.66;96521.94;5095959;28;20579;-88
2021/11/10 11:34:55;;;;;;;10.03;4.60;;;;;;;11.03;63.71;96509.00;5100394;28;20926;-85
2021/11/10 11:37:25;;;;;;;7.10;4.60;;;;;;;11.07;62.88;96517.53;5114561;28;20514;-85
2021/11/10 11:39:52;;;;;;;4.80;4.33;;;;;;;11.21;62.21;96519.31;5118538;28;20539;-86
2021/11/10 11:42:21;;;;;;;5.10;4.37;;;;;;;11.03;61.61;96511.63;5119837;28;20805;-86
2021/11/10 11:44:48;;;;;;;6.53;4.90;;;;;;;11.24;62.63;96522.59;5120539;28;20431;-85
2021/11/10 11:47:19;;;;;;;4.60;4.10;;;;;;;11.28;61.77;96512.78;5064126;28;20535;-86
2021/11/10 11:53:19;;;;;;;5.23;4.70;;;;;;;11.54;59.81;96522.50;5100561;28;20426;-86
2021/11/10 11:55:50;;;;;;;5.10;4.07;;;;;;;11.41;60.82;96513.69;5100397;28;20448;-85
2021/11/10 11:58:19;;;;;;;4.47;4.03;;;;;;;11.46;59.51;96508.97;5109087;28;20439;-84
2021/11/10 12:00:51;;;;;;;4.73;4.23;;;;;;;11.29;60.11;96509.22;5120614;28;20478;-85
2021/11/10 12:13:31;;;;;;;5.00;3.77;;;;;;;11.17;61.95;96498.50;5119346;28;20435;-85
2021/11/10 12:16:18;;;;;;;12.83;3.87;;;;;;;11.04;61.91;96502.81;5121737;28;20517;-83
2021/11/10 12:18:48;;;;;;;5.87;4.67;;;;;;;11.08;63.06;96488.56;5118837;28;20467;-84
2021/11/10 12:21:19;;;;;;;10.13;3.83;;;;;;;11.03;60.70;96498.50;5118964;28;20511;-85
2021/11/10 12:24:19;;;;;;;3.80;3.50;;;;;;;11.02;60.63;96491.56;5119876;28;20451;-85
2021/11/10 12:27:10;;;;;;;5.73;3.23;;;;;;;10.90;60.00;96501.94;5116481;28;20470;-84
2021/11/10 12:29:50;;;;;;;4.10;3.70;;;;;;;10.64;62.26;96482.50;5118199;28;20483;-84
2021/11/10 12:32:18;;;;;;;4.80;4.07;;;;;;;10.86;63.28;96494.25;5119601;28;20478;-85
2021/11/10 12:34:55;;;;;;;3.93;3.63;;;;;;;10.83;62.65;96489.19;5121084;28;20477;-85
2021/11/10 12:37:28;;;;;;;8.90;3.90;;;;;;;10.79;61.50;96485.06;5125508;28;20479;-86
2021/11/10 12:40:15;;;;;;;3.97;3.57;;;;;;;10.71;61.22;96481.22;5118702;28;20506;-85
2021/11/10 12:42:55;;;;;;;4.10;3.80;;;;;;;10.66;62.24;96485.88;5120858;28;20481;-85
2021/11/10 12:45:29;;;;;;;10.10;4.77;;;;;;;10.81;61.94;96464.81;5121275;28;20468;-85
2021/11/10 12:47:59;;;;;;;5.60;4.70;;;;;;;10.85;63.03;96476.81;5120998;28;21001;-86
2021/11/10 12:50:41;;;;;;;14.63;4.93;;;;;;;10.89;62.47;96476.63;5120918;28;20432;-85